createdAt,value
2024-02-19T00:00:33.401Z,45.97
2024-02-19T00:03:04.145Z,51.28
2024-02-19T00:05:31.545Z,45.22
2024-02-19T00:07:58.705Z,54.15
2024-02-19T00:10:27.484Z,51.38
2024-02-19T00:12:54.533Z,54.30
2024-02-19T00:15:21.501Z,53.65
2024-02-19T00:17:48.717Z,47.85
2024-02-19T00:20:16.096Z,51.10
2024-02-19T00:22:43.130Z,41.78
2024-02-19T00:25:10.381Z,49.92
2024-02-19T00:27:38.976Z,44.13
2024-02-19T00:30:07.359Z,48.55
2024-02-19T00:32:35.267Z,49.55
2024-02-19T00:35:02.460Z,46.88
2024-02-19T00:37:29.417Z,52.03
2024-02-19T00:39:56.479Z,46.70
2024-02-19T00:42:23.506Z,42.63
2024-02-19T00:44:51.908Z,44.80
2024-02-19T00:47:18.935Z,46.00
2024-02-19T00:49:46.010Z,54.35
2024-02-19T00:52:13.294Z,53.80
2024-02-19T00:54:40.447Z,47.30
2024-02-19T00:57:07.654Z,45.13
2024-02-19T00:59:34.608Z,47.20
2024-02-19T01:02:04.329Z,43.55
2024-02-19T01:04:31.440Z,46.13
2024-02-19T01:06:58.429Z,46.45
2024-02-19T01:09:25.436Z,46.20
2024-02-19T01:11:52.439Z,45.00
2024-02-19T01:14:19.454Z,48.63
2024-02-19T01:16:47.825Z,51.63
2024-02-19T01:19:16.549Z,44.88
2024-02-19T01:21:44.291Z,43.00
2024-02-19T01:24:11.394Z,42.97
2024-02-19T01:26:38.407Z,44.25
2024-02-19T01:29:05.576Z,48.33
2024-02-19T01:31:33.068Z,41.20
2024-02-19T01:34:00.095Z,46.50
2024-02-19T01:36:28.550Z,51.15
2024-02-19T01:38:55.557Z,47.95
2024-02-19T01:41:22.662Z,49.88
2024-02-19T01:43:49.633Z,44.88
2024-02-19T01:46:17.138Z,48.45
2024-02-19T01:48:47.139Z,44.55
2024-02-19T01:51:16.499Z,45.42
2024-02-19T01:53:45.616Z,48.92
2024-02-19T01:56:12.734Z,47.78
2024-02-19T01:58:39.877Z,47.20
2024-02-19T02:01:07.779Z,49.03
2024-02-19T02:03:36.433Z,49.53
2024-02-19T02:06:03.666Z,52.45
2024-02-19T02:08:30.928Z,46.40
2024-02-19T02:10:59.560Z,50.92
2024-02-19T02:13:26.685Z,50.08
2024-02-19T02:15:53.795Z,41.92
2024-02-19T02:18:21.168Z,43.80
2024-02-19T02:20:48.946Z,37.25
2024-02-19T02:23:16.938Z,44.67
2024-02-19T02:25:44.020Z,38.17
2024-02-19T02:28:12.498Z,40.05
2024-02-19T02:30:39.785Z,39.67
2024-02-19T02:33:07.024Z,32.72
2024-02-19T02:35:35.177Z,31.50
2024-02-19T02:38:02.196Z,29.65
2024-02-19T02:40:29.286Z,27.10
2024-02-19T02:42:56.477Z,30.27
2024-02-19T02:45:25.437Z,27.00
2024-02-19T02:47:52.639Z,24.75
2024-02-19T02:50:19.732Z,25.20
2024-02-19T02:52:46.838Z,30.02
2024-02-19T02:55:14.239Z,27.73
2024-02-19T02:57:41.354Z,25.48
2024-02-19T03:00:09.985Z,23.80
2024-02-19T03:02:38.509Z,24.42
2024-02-19T03:05:06.020Z,27.30
2024-02-19T03:07:33.638Z,24.45
2024-02-19T03:10:00.720Z,21.10
2024-02-19T03:12:27.902Z,20.73
2024-02-19T03:14:55.619Z,23.15
2024-02-19T03:17:22.618Z,16.25
2024-02-19T03:19:51.650Z,19.17
2024-02-19T03:22:18.742Z,18.83
2024-02-19T03:24:46.182Z,18.50
2024-02-19T03:27:13.738Z,14.70
2024-02-19T03:29:40.733Z,16.45
2024-02-19T03:32:08.242Z,16.67
2024-02-19T03:34:35.286Z,17.55
2024-02-19T03:37:04.063Z,16.33
2024-02-19T03:39:31.042Z,17.27
2024-02-19T03:41:58.159Z,15.15
2024-02-19T03:44:25.167Z,17.90
2024-02-19T03:46:52.169Z,15.90
2024-02-19T03:49:19.379Z,13.13
2024-02-19T03:51:46.489Z,13.30
2024-02-19T03:54:15.029Z,17.00
2024-02-19T03:56:42.325Z,16.23
2024-02-19T03:59:09.547Z,17.10
2024-02-19T04:01:38.927Z,18.30
2024-02-19T04:04:06.265Z,17.02
2024-02-19T04:06:33.374Z,17.17
2024-02-19T04:09:00.386Z,18.40
2024-02-19T04:11:28.846Z,18.77
2024-02-19T04:13:55.932Z,19.13
2024-02-19T04:16:23.051Z,20.90
2024-02-19T04:18:50.409Z,18.75
2024-02-19T04:21:17.621Z,17.33
2024-02-19T04:23:45.274Z,16.35
2024-02-19T04:26:12.268Z,19.67
2024-02-19T04:28:40.655Z,17.55
2024-02-19T04:31:07.756Z,18.58
2024-02-19T04:33:34.946Z,21.33
2024-02-19T04:36:02.027Z,20.88
2024-02-19T04:38:29.160Z,23.63
2024-02-19T04:40:56.592Z,19.20
2024-02-19T04:43:24.169Z,20.33
2024-02-19T04:45:52.723Z,21.23
2024-02-19T04:48:19.791Z,19.00
2024-02-19T04:50:46.845Z,20.15
2024-02-19T04:53:19.330Z,16.63
2024-02-19T04:55:46.861Z,21.25
2024-02-19T04:58:13.913Z,20.35
2024-02-19T05:00:42.366Z,23.50
2024-02-19T05:03:11.691Z,23.98
2024-02-19T05:05:39.749Z,23.17
2024-02-19T05:08:07.367Z,21.00
2024-02-19T05:10:34.402Z,19.00
2024-02-19T05:13:01.982Z,24.67
2024-02-19T05:15:29.022Z,19.60
2024-02-19T05:17:56.358Z,21.08
2024-02-19T05:20:27.505Z,20.55
2024-02-19T05:22:55.025Z,23.67
2024-02-19T05:25:22.124Z,20.38
2024-02-19T05:27:49.266Z,19.10
2024-02-19T05:30:17.516Z,15.77
2024-02-19T05:32:44.739Z,19.92
2024-02-19T05:35:11.739Z,16.23
2024-02-19T05:37:40.205Z,22.88
2024-02-19T05:40:08.769Z,15.18
2024-02-19T05:42:35.827Z,16.05
2024-02-19T05:45:02.875Z,17.83
2024-02-19T05:47:30.085Z,15.88
2024-02-19T05:49:57.198Z,17.75
2024-02-19T05:52:24.334Z,14.18
2024-02-19T05:54:53.656Z,13.32
2024-02-19T05:57:20.754Z,14.57
2024-02-19T05:59:47.737Z,21.13
2024-02-19T06:02:14.986Z,13.05
2024-02-19T06:04:42.248Z,12.77
2024-02-19T06:07:09.410Z,11.13
2024-02-19T06:09:36.508Z,10.23
2024-02-19T06:12:06.073Z,10.45
2024-02-19T06:14:33.461Z,10.38
2024-02-19T06:17:00.709Z,9.68
2024-02-19T06:19:27.762Z,11.05
2024-02-19T06:21:54.800Z,13.25
2024-02-19T06:24:21.931Z,10.98
2024-02-19T06:26:49.074Z,13.68
2024-02-19T06:29:17.437Z,13.13
2024-02-19T06:31:47.268Z,15.40
2024-02-19T06:34:14.462Z,9.40
2024-02-19T06:36:41.652Z,53.20
2024-02-19T06:39:09.344Z,26.08
2024-02-19T06:41:36.411Z,206.05
2024-02-19T06:44:03.479Z,21.35
2024-02-19T06:46:31.940Z,9.75
2024-02-19T06:49:01.323Z,11.05
2024-02-19T06:51:28.942Z,10.90
2024-02-19T06:53:55.924Z,13.93
2024-02-19T06:56:23.300Z,15.15
2024-02-19T06:58:50.297Z,10.80
2024-02-19T07:01:17.784Z,13.63
2024-02-19T07:03:46.686Z,9.05
2024-02-19T07:06:17.010Z,8.65
2024-02-19T07:08:44.279Z,10.02
2024-02-19T07:11:11.353Z,10.38
2024-02-19T07:13:41.478Z,7.38
2024-02-19T07:16:08.931Z,8.48
2024-02-19T07:18:36.162Z,6.32
2024-02-19T07:21:05.214Z,7.65
2024-02-19T07:23:32.272Z,7.00
2024-02-19T07:25:59.452Z,8.50
2024-02-19T07:28:27.662Z,9.18
2024-02-19T07:30:54.787Z,5.80
2024-02-19T07:33:22.904Z,4.63
2024-02-19T07:35:50.621Z,3.97
2024-02-19T07:38:19.277Z,5.18
2024-02-19T07:40:46.672Z,8.32
2024-02-19T07:43:16.837Z,5.25
2024-02-19T07:45:43.959Z,4.80
2024-02-19T07:48:12.545Z,6.43
2024-02-19T07:50:39.953Z,4.90
2024-02-19T07:53:06.969Z,5.20
2024-02-19T07:55:39.185Z,6.55
2024-02-19T07:58:06.294Z,4.70
2024-02-19T08:00:33.501Z,4.13
2024-02-19T08:03:00.712Z,5.50
2024-02-19T08:05:27.729Z,6.05
2024-02-19T08:07:55.131Z,6.05
2024-02-19T08:10:22.158Z,6.35
2024-02-19T08:12:50.857Z,8.98
2024-02-19T08:15:18.011Z,4.53
2024-02-19T08:17:46.345Z,5.22
2024-02-19T08:20:13.437Z,5.55
2024-02-19T08:22:41.951Z,8.57
2024-02-19T08:25:11.274Z,4.85
2024-02-19T08:27:38.572Z,4.95
2024-02-19T08:30:08.426Z,5.70
2024-02-19T08:32:35.489Z,7.07
2024-02-19T08:35:02.881Z,5.13
2024-02-19T08:37:30.706Z,5.05
2024-02-19T08:39:57.902Z,5.95
2024-02-19T08:42:25.031Z,5.03
2024-02-19T08:44:52.000Z,5.93
2024-02-19T08:47:20.639Z,7.00
2024-02-19T08:49:47.852Z,5.28
2024-02-19T08:52:15.515Z,6.70
2024-02-19T08:54:42.718Z,6.45
2024-02-19T08:57:10.041Z,5.15
2024-02-19T08:59:38.888Z,6.72
2024-02-19T09:02:06.193Z,8.18
2024-02-19T09:04:35.492Z,5.30
2024-02-19T09:07:02.745Z,6.93
2024-02-19T09:09:30.600Z,5.97
2024-02-19T09:11:57.626Z,7.22
2024-02-19T09:14:27.949Z,6.55
2024-02-19T09:16:57.656Z,5.63
2024-02-19T09:19:24.972Z,7.45
2024-02-19T09:21:53.456Z,6.72
2024-02-19T09:24:20.551Z,9.75
2024-02-19T09:26:47.509Z,9.15
2024-02-19T09:29:16.617Z,6.22
2024-02-19T09:31:44.287Z,11.13
2024-02-19T09:34:11.364Z,7.40
2024-02-19T09:36:38.420Z,7.35
2024-02-19T09:39:07.482Z,6.00
2024-02-19T09:41:34.795Z,5.00
2024-02-19T09:44:01.796Z,5.63
2024-02-19T09:46:28.793Z,9.68
2024-02-19T09:48:58.962Z,25.17
2024-02-19T09:51:33.295Z,12.25
2024-02-19T09:54:06.837Z,5.60
2024-02-19T09:56:35.383Z,5.28
2024-02-19T09:59:02.446Z,6.35
2024-02-19T10:01:29.725Z,5.00
2024-02-19T10:03:57.940Z,5.43
2024-02-19T10:06:33.761Z,7.38
2024-02-19T10:09:08.027Z,7.18
2024-02-19T10:11:37.093Z,7.10
2024-02-19T10:14:04.926Z,4.97
2024-02-19T10:16:32.296Z,6.53
2024-02-19T10:19:06.339Z,7.43
2024-02-19T10:21:34.406Z,4.68
2024-02-19T10:24:01.690Z,4.70
2024-02-19T10:26:28.846Z,5.90
2024-02-19T10:28:58.721Z,4.55
2024-02-19T10:31:27.423Z,4.63
2024-02-19T10:33:54.737Z,5.32
2024-02-19T10:36:23.803Z,6.88
2024-02-19T10:38:51.270Z,6.50
2024-02-19T10:41:19.133Z,4.43
2024-02-19T10:43:46.427Z,6.38
2024-02-19T10:46:21.121Z,8.30
2024-02-19T10:48:49.170Z,5.82
2024-02-19T10:51:19.025Z,8.75
2024-02-19T10:53:46.621Z,9.10
2024-02-19T10:56:17.429Z,6.78
2024-02-19T10:58:54.727Z,5.45
2024-02-19T11:01:24.701Z,5.55
2024-02-19T11:03:52.362Z,4.47
2024-02-19T11:06:24.995Z,6.43
2024-02-19T11:08:56.012Z,6.53
2024-02-19T11:11:23.864Z,5.15
2024-02-19T11:13:51.195Z,5.13
2024-02-19T11:16:19.434Z,4.38
2024-02-19T11:18:51.261Z,6.47
2024-02-19T11:21:19.633Z,4.07
2024-02-19T11:23:46.726Z,6.72
2024-02-19T11:26:14.129Z,7.40
2024-02-19T11:28:41.379Z,5.55
2024-02-19T11:31:10.676Z,8.15
2024-02-19T11:33:38.091Z,8.50
2024-02-19T11:36:08.594Z,7.18
2024-02-19T11:38:36.129Z,4.75
2024-02-19T11:41:05.023Z,5.72
2024-02-19T11:43:32.470Z,6.43
2024-02-19T11:46:00.227Z,4.80
2024-02-19T11:48:27.513Z,6.03
2024-02-19T11:50:54.719Z,6.22
2024-02-19T11:53:24.220Z,6.28
2024-02-19T11:56:02.115Z,4.40
2024-02-19T11:58:29.833Z,8.38
2024-02-19T12:01:00.386Z,8.77
2024-02-19T12:03:28.907Z,7.05
2024-02-19T12:06:01.811Z,6.55
2024-02-19T12:08:31.656Z,5.55
2024-02-19T12:10:59.674Z,4.47
2024-02-19T12:13:27.425Z,5.78
2024-02-19T12:15:54.526Z,6.70
2024-02-19T12:18:21.937Z,5.53
2024-02-19T12:20:49.648Z,5.22
2024-02-19T12:23:16.899Z,6.70
2024-02-19T12:25:45.472Z,8.30
2024-02-19T12:28:12.576Z,6.45
2024-02-19T12:30:39.589Z,9.52
2024-02-19T12:33:08.510Z,8.93
2024-02-19T12:35:37.739Z,8.88
2024-02-19T12:38:06.831Z,9.05
2024-02-19T12:40:34.062Z,14.15
2024-02-19T12:43:03.537Z,14.90
2024-02-19T12:45:30.591Z,8.13
2024-02-19T12:47:57.761Z,10.70
2024-02-19T12:50:25.195Z,12.27
2024-02-19T12:52:52.857Z,8.55
2024-02-19T12:55:20.096Z,9.48
2024-02-19T12:57:47.563Z,39.88
2024-02-19T13:00:16.581Z,6.05
2024-02-19T13:02:43.822Z,6.45
2024-02-19T13:05:11.023Z,8.55
2024-02-19T13:07:38.217Z,8.10
2024-02-19T13:10:06.421Z,5.30
2024-02-19T13:12:33.532Z,10.90
2024-02-19T13:15:01.946Z,22.90
2024-02-19T13:17:39.725Z,8.20
2024-02-19T13:20:11.656Z,6.53
2024-02-19T13:22:39.209Z,6.85
2024-02-19T13:25:08.281Z,7.07
2024-02-19T13:27:35.397Z,5.25
2024-02-19T13:30:02.778Z,5.07
2024-02-19T13:32:31.791Z,5.13
2024-02-19T13:34:59.366Z,5.07
2024-02-19T13:37:27.274Z,6.53
2024-02-19T13:39:55.245Z,13.48
2024-02-19T13:42:22.394Z,6.63
2024-02-19T13:44:49.614Z,5.72
2024-02-19T13:47:16.822Z,11.05
2024-02-19T13:49:46.985Z,11.27
2024-02-19T13:52:14.308Z,8.68
2024-02-19T13:54:41.403Z,10.43
2024-02-19T13:57:09.148Z,9.43
2024-02-19T13:59:36.200Z,9.32
2024-02-19T14:02:03.234Z,9.43
2024-02-19T14:04:30.446Z,6.40
2024-02-19T14:06:59.343Z,6.78
2024-02-19T14:09:26.590Z,8.68
2024-02-19T14:11:54.296Z,7.80
2024-02-19T14:14:21.431Z,7.75
2024-02-19T14:16:48.558Z,8.18
2024-02-19T14:19:16.294Z,8.25
2024-02-19T14:21:43.495Z,8.52
2024-02-19T14:24:11.917Z,8.30
2024-02-19T14:26:38.908Z,9.07
2024-02-19T14:29:09.247Z,8.55
2024-02-19T14:31:36.604Z,11.20
2024-02-19T14:34:04.993Z,9.55
2024-02-19T14:36:32.174Z,9.30
2024-02-19T14:38:59.218Z,10.82
2024-02-19T14:41:27.572Z,9.80
2024-02-19T14:43:55.691Z,11.32
2024-02-19T14:46:23.095Z,10.95
2024-02-19T14:48:50.502Z,8.70
2024-02-19T14:51:20.488Z,10.40
2024-02-19T14:53:51.915Z,9.85
2024-02-19T14:56:19.250Z,8.10
2024-02-19T14:58:47.640Z,12.40
2024-02-19T15:01:14.943Z,11.23
2024-02-19T15:03:42.066Z,14.52
2024-02-19T15:06:09.291Z,17.33
2024-02-19T15:08:36.789Z,12.73
2024-02-19T15:11:05.127Z,14.45
2024-02-19T15:13:32.196Z,10.95
2024-02-19T15:16:00.700Z,14.60
2024-02-19T15:18:28.157Z,28.15
2024-02-19T15:20:55.265Z,36.03
2024-02-19T15:23:22.332Z,12.50
2024-02-19T15:25:52.788Z,13.65
2024-02-19T15:28:20.069Z,13.07
2024-02-19T15:30:47.458Z,11.57
2024-02-19T15:33:15.941Z,21.92
2024-02-19T15:35:43.286Z,18.27
2024-02-19T15:38:13.292Z,15.05
2024-02-19T15:40:40.757Z,22.40
2024-02-19T15:43:08.136Z,24.33
2024-02-19T15:45:36.828Z,32.67
2024-02-19T15:48:04.251Z,32.30
2024-02-19T15:50:33.686Z,33.72
2024-02-19T15:53:06.251Z,22.20
2024-02-19T15:55:34.346Z,17.50
2024-02-19T15:58:01.552Z,85.40
2024-02-19T16:00:28.578Z,64.95
2024-02-19T16:02:55.583Z,61.58
2024-02-19T16:05:22.646Z,25.98
2024-02-19T16:07:51.244Z,25.13
2024-02-19T16:10:18.543Z,32.45
2024-02-19T16:12:46.266Z,29.30
2024-02-19T16:15:13.478Z,27.55
2024-02-19T16:17:41.172Z,29.73
2024-02-19T16:20:09.326Z,41.22
2024-02-19T16:22:36.828Z,18.17
2024-02-19T16:25:08.505Z,20.33
2024-02-19T16:27:36.847Z,29.27
2024-02-19T16:30:06.495Z,14.95
2024-02-19T16:32:35.341Z,29.52
2024-02-19T16:35:02.628Z,28.58
2024-02-19T16:37:29.984Z,22.15
2024-02-19T16:39:57.014Z,21.38
2024-02-19T16:42:25.418Z,27.95
2024-02-19T16:44:52.837Z,22.38
2024-02-19T16:47:19.803Z,37.38
2024-02-19T16:49:47.386Z,102.20
2024-02-19T16:52:15.160Z,56.75
2024-02-19T16:54:42.199Z,134.38
2024-02-19T16:57:09.157Z,245.05
2024-02-19T16:59:38.058Z,34.97
2024-02-19T17:02:05.335Z,47.67
2024-02-19T17:04:32.604Z,76.45
2024-02-19T17:06:59.916Z,21.52
2024-02-19T17:09:27.047Z,59.70
2024-02-19T17:11:54.636Z,43.55
2024-02-19T17:14:21.767Z,39.90
2024-02-19T17:16:53.836Z,383.63
2024-02-19T17:19:21.548Z,139.52
2024-02-19T17:21:48.755Z,134.55
2024-02-19T17:24:15.858Z,16.88
2024-02-19T17:26:44.491Z,62.20
2024-02-19T17:29:11.873Z,75.75
2024-02-19T17:31:40.449Z,21.33
2024-02-19T17:34:09.283Z,24.90
2024-02-19T17:36:36.357Z,10.27
2024-02-19T17:39:07.776Z,19.83
2024-02-19T17:41:35.057Z,15.63
2024-02-19T17:44:02.436Z,17.88
2024-02-19T17:46:29.797Z,11.73
2024-02-19T17:48:57.096Z,13.40
2024-02-19T17:51:29.747Z,14.25
2024-02-19T17:53:59.044Z,25.13
2024-02-19T17:56:29.690Z,13.50
2024-02-19T17:58:57.161Z,8.18
2024-02-19T18:01:26.945Z,9.55
2024-02-19T18:03:54.568Z,11.02
2024-02-19T18:06:22.081Z,8.32
2024-02-19T18:08:52.244Z,14.57
2024-02-19T18:11:19.542Z,9.73
2024-02-19T18:13:46.944Z,12.43
2024-02-19T18:16:14.170Z,12.57
2024-02-19T18:18:43.287Z,13.10
2024-02-19T18:21:10.716Z,11.98
2024-02-19T18:23:37.952Z,10.05
2024-02-19T18:26:07.105Z,11.13
2024-02-19T18:28:36.187Z,12.38
2024-02-19T18:31:05.514Z,16.45
2024-02-19T18:33:32.864Z,17.02
2024-02-19T18:36:00.051Z,14.27
2024-02-19T18:38:27.413Z,9.73
2024-02-19T18:40:56.115Z,10.82
2024-02-19T18:43:26.856Z,15.73
2024-02-19T18:45:54.463Z,16.55
2024-02-19T18:48:22.583Z,16.80
2024-02-19T18:50:49.709Z,13.20
2024-02-19T18:53:16.967Z,15.43
2024-02-19T18:55:44.988Z,17.55
2024-02-19T18:58:11.980Z,16.13
2024-02-19T19:00:40.690Z,16.67
2024-02-19T19:03:08.064Z,22.50
2024-02-19T19:05:35.704Z,21.77
2024-02-19T19:08:03.292Z,19.90
2024-02-19T19:10:30.372Z,24.02
2024-02-19T19:12:57.472Z,25.73
2024-02-19T19:15:24.867Z,24.58
2024-02-19T19:17:53.301Z,27.25
2024-02-19T19:20:20.895Z,24.77
2024-02-19T19:22:48.153Z,25.08
2024-02-19T19:25:15.394Z,31.40
2024-02-19T19:27:42.449Z,28.45
2024-02-19T19:30:10.240Z,39.70
2024-02-19T19:32:37.278Z,33.85
2024-02-19T19:35:06.821Z,39.70
2024-02-19T19:37:34.160Z,46.35
2024-02-19T19:40:05.263Z,42.28
2024-02-19T19:42:32.329Z,42.33
2024-02-19T19:44:59.319Z,39.47
2024-02-19T19:47:26.398Z,36.42
2024-02-19T19:49:53.628Z,35.50
2024-02-19T19:52:23.897Z,34.35
2024-02-19T19:54:51.087Z,35.38
2024-02-19T19:57:18.085Z,32.03
2024-02-19T19:59:49.257Z,36.33
2024-02-19T20:02:17.238Z,33.88
2024-02-19T20:04:44.821Z,31.42
2024-02-19T20:07:12.022Z,36.17
2024-02-19T20:09:42.562Z,32.78
2024-02-19T20:12:13.079Z,37.35
2024-02-19T20:14:40.750Z,40.03
2024-02-19T20:17:07.842Z,35.70
2024-02-19T20:19:34.958Z,35.13
2024-02-19T20:22:02.061Z,37.88
2024-02-19T20:24:29.064Z,30.88
2024-02-19T20:27:00.652Z,38.97
2024-02-19T20:29:27.785Z,38.90
2024-02-19T20:31:54.821Z,39.08
2024-02-19T20:34:22.123Z,34.83
2024-02-19T20:36:49.362Z,42.30
2024-02-19T20:39:16.501Z,40.13
2024-02-19T20:41:44.089Z,40.35
2024-02-19T20:44:12.495Z,39.42
2024-02-19T20:46:40.455Z,41.17
2024-02-19T20:49:07.629Z,39.53
2024-02-19T20:51:34.665Z,35.72
2024-02-19T20:54:01.703Z,45.40
2024-02-19T20:56:30.329Z,40.13
2024-02-19T20:58:57.592Z,39.15
2024-02-19T21:01:26.460Z,33.42
2024-02-19T21:03:55.737Z,31.40
2024-02-19T21:06:22.803Z,33.35
2024-02-19T21:08:49.987Z,33.13
2024-02-19T21:11:17.230Z,29.33
2024-02-19T21:13:44.278Z,32.33
2024-02-19T21:16:11.518Z,32.03
2024-02-19T21:18:47.115Z,31.40
2024-02-19T21:21:18.262Z,47.13
2024-02-19T21:23:54.810Z,34.38
2024-02-19T21:26:22.064Z,31.10
2024-02-19T21:28:50.564Z,30.08
2024-02-19T21:31:17.975Z,32.75
2024-02-19T21:33:47.128Z,37.42
2024-02-19T21:36:14.279Z,200.43
2024-02-19T21:38:41.634Z,208.18
2024-02-19T21:41:08.823Z,316.58
2024-02-19T21:43:35.968Z,229.02
2024-02-19T21:46:03.329Z,126.65
2024-02-19T21:48:30.631Z,86.75
2024-02-19T21:50:59.362Z,73.78
2024-02-19T21:53:26.356Z,55.20
2024-02-19T21:55:53.356Z,58.25
2024-02-19T21:58:20.601Z,43.45
2024-02-19T22:00:47.789Z,53.92
2024-02-19T22:03:14.889Z,49.85
2024-02-19T22:05:41.973Z,55.95
2024-02-19T22:08:10.996Z,43.05
2024-02-19T22:10:38.613Z,37.38
2024-02-19T22:13:05.923Z,37.05
2024-02-19T22:15:33.027Z,32.58
2024-02-19T22:18:00.563Z,25.98
2024-02-19T22:20:27.647Z,27.35
2024-02-19T22:22:54.690Z,26.40
2024-02-19T22:25:23.255Z,29.88
2024-02-19T22:27:53.981Z,30.30
2024-02-19T22:30:21.197Z,29.00
2024-02-19T22:32:48.257Z,31.92
2024-02-19T22:35:15.704Z,31.88
2024-02-19T22:37:42.829Z,27.63
2024-02-19T22:40:11.297Z,26.60
2024-02-19T22:42:39.721Z,25.23
2024-02-19T22:45:08.058Z,24.35
2024-02-19T22:47:35.271Z,26.25
2024-02-19T22:50:05.561Z,24.55
2024-02-19T22:52:33.206Z,25.33
2024-02-19T22:55:01.482Z,27.55
2024-02-19T22:57:28.464Z,26.40
2024-02-19T22:59:57.253Z,23.08
2024-02-19T23:02:24.437Z,25.15
2024-02-19T23:04:51.484Z,28.25
2024-02-19T23:07:18.743Z,24.77
2024-02-19T23:09:45.796Z,26.60
2024-02-19T23:12:12.984Z,32.15
2024-02-19T23:14:40.144Z,30.50
2024-02-19T23:17:08.677Z,30.15
2024-02-19T23:19:35.772Z,28.42
2024-02-19T23:22:02.899Z,26.23
2024-02-19T23:24:30.085Z,30.02
2024-02-19T23:26:57.075Z,24.15
2024-02-19T23:29:24.142Z,30.05
2024-02-19T23:31:51.132Z,27.58
2024-02-19T23:34:20.461Z,27.52
2024-02-19T23:36:47.607Z,24.00
2024-02-19T23:39:14.725Z,29.38
2024-02-19T23:41:41.703Z,38.53
2024-02-19T23:44:08.741Z,52.75
2024-02-19T23:46:35.925Z,39.60
2024-02-19T23:49:03.071Z,35.72
2024-02-19T23:51:31.507Z,31.30
2024-02-19T23:53:59.512Z,37.80
2024-02-19T23:56:26.567Z,30.13
2024-02-19T23:58:53.614Z,31.50
